createdAt,value
2018-07-02T00:00:41.443Z,101956.20
2018-07-02T00:03:09.495Z,101949.17
2018-07-02T00:05:49.052Z,101951.58
2018-07-02T00:19:41.997Z,101943.03
2018-07-02T00:22:10.337Z,101946.16
2018-07-02T00:24:38.397Z,101939.38
2018-07-02T00:27:06.571Z,101937.38
2018-07-02T00:29:34.698Z,101937.25
2018-07-02T00:32:02.805Z,101939.08
2018-07-02T00:34:30.904Z,101942.53
2018-07-02T00:36:58.948Z,101937.88
2018-07-02T00:39:27.012Z,101934.95
2018-07-02T00:41:55.075Z,101930.64
2018-07-02T00:44:23.132Z,101928.77
2018-07-02T00:46:51.173Z,101927.47
2018-07-02T00:49:19.235Z,101928.16
2018-07-02T00:51:47.284Z,101924.30
2018-07-02T00:54:15.371Z,101921.94
2018-07-02T00:56:43.416Z,101929.81
2018-07-02T00:59:11.548Z,101926.67
2018-07-02T01:01:39.638Z,101928.50
2018-07-02T01:04:07.764Z,101932.56
2018-07-02T01:06:35.819Z,101939.73
2018-07-02T01:09:05.192Z,101937.71
2018-07-02T01:11:33.284Z,101930.02
2018-07-02T01:14:01.325Z,101931.84
2018-07-02T01:16:29.372Z,101937.00
2018-07-02T01:18:57.428Z,101934.98
2018-07-02T01:21:25.496Z,101935.50
2018-07-02T01:23:53.571Z,101930.55
2018-07-02T01:26:21.623Z,101925.83
2018-07-02T01:28:49.673Z,101934.11
2018-07-02T01:31:17.724Z,101935.66
2018-07-02T01:33:45.779Z,101927.52
2018-07-02T01:36:13.828Z,101935.53
2018-07-02T01:38:41.916Z,101938.73
2018-07-02T01:41:09.963Z,101931.70
2018-07-02T01:43:38.028Z,101927.05
2018-07-02T01:46:06.084Z,101928.63
2018-07-02T01:48:34.134Z,101936.55
2018-07-02T01:51:02.179Z,101940.57
2018-07-02T01:53:30.228Z,101934.03
2018-07-02T01:55:58.320Z,101933.55
2018-07-02T01:58:26.372Z,101933.47
2018-07-02T02:00:54.423Z,101930.58
2018-07-02T02:03:22.469Z,101930.98
2018-07-02T02:05:50.520Z,101930.23
2018-07-02T02:08:18.553Z,101934.25
2018-07-02T02:10:46.607Z,101933.83
2018-07-02T02:13:14.652Z,101934.73
2018-07-02T02:15:42.708Z,101926.24
2018-07-02T02:18:10.754Z,101927.70
2018-07-02T02:20:38.828Z,101933.33
2018-07-02T02:23:06.860Z,101934.82
2018-07-02T02:25:34.921Z,101942.73
2018-07-02T02:28:02.979Z,101935.30
2018-07-02T02:30:31.042Z,101935.37
2018-07-02T02:32:59.088Z,101931.11
2018-07-02T02:35:27.154Z,101935.45
2018-07-02T02:37:55.188Z,101931.69
2018-07-02T02:40:23.244Z,101928.48
2018-07-02T02:42:51.296Z,101926.04
2018-07-02T02:45:19.369Z,101923.00
2018-07-02T02:47:47.461Z,101928.81
2018-07-02T02:50:15.458Z,101922.17
2018-07-02T02:52:43.499Z,101928.95
2018-07-02T02:55:11.540Z,101928.22
2018-07-02T02:57:39.593Z,101931.40
2018-07-02T03:00:07.640Z,101925.42
2018-07-02T03:02:35.680Z,101925.75
2018-07-02T03:05:03.728Z,101928.92
2018-07-02T03:07:31.763Z,101925.32
2018-07-02T03:09:59.817Z,101927.34
2018-07-02T03:12:27.856Z,101926.05
2018-07-02T03:14:55.907Z,101931.89
2018-07-02T03:17:23.950Z,101927.56
2018-07-02T03:19:52.053Z,101922.91
2018-07-02T03:22:20.120Z,101922.41
2018-07-02T03:24:48.173Z,101922.48
2018-07-02T03:27:16.213Z,101918.41
2018-07-02T03:29:44.249Z,101924.84
2018-07-02T03:32:12.319Z,101919.43
2018-07-02T03:34:40.364Z,101916.72
2018-07-02T03:37:08.404Z,101928.41
2018-07-02T03:39:36.489Z,101925.93
2018-07-02T03:42:04.528Z,101928.80
2018-07-02T03:44:32.591Z,101927.31
2018-07-02T03:47:00.658Z,101927.02
2018-07-02T03:49:28.703Z,101925.54
2018-07-02T03:51:56.786Z,101925.24
2018-07-02T03:54:24.823Z,101922.14
2018-07-02T03:56:52.908Z,101929.02
2018-07-02T03:59:20.943Z,101923.86
2018-07-02T04:01:48.993Z,101926.57
2018-07-02T04:04:17.077Z,101925.95
2018-07-02T04:06:45.143Z,101930.84
2018-07-02T04:09:14.099Z,101918.84
2018-07-02T04:11:42.481Z,101921.48
2018-07-02T04:14:10.565Z,101920.27
2018-07-02T04:16:39.041Z,101919.88
2018-07-02T04:19:10.073Z,101918.58
2018-07-02T04:21:38.962Z,101923.96
2018-07-02T04:24:07.327Z,101921.28
2018-07-02T04:26:35.396Z,101921.07
2018-07-02T04:29:03.685Z,101914.78
2018-07-02T04:31:31.727Z,101910.70
2018-07-02T04:33:59.839Z,101922.39
2018-07-02T04:36:28.088Z,101922.64
2018-07-02T04:38:56.169Z,101925.77
2018-07-02T04:41:24.204Z,101921.68
2018-07-02T04:43:52.412Z,101911.27
2018-07-02T04:46:20.512Z,101907.64
2018-07-02T04:48:48.581Z,101912.09
2018-07-02T04:51:16.712Z,101915.31
2018-07-02T04:53:44.820Z,101914.69
2018-07-02T04:56:12.852Z,101912.78
2018-07-02T04:58:41.132Z,101904.97
2018-07-02T05:01:09.912Z,101904.59
2018-07-02T05:03:38.191Z,101907.89
2018-07-02T05:06:06.783Z,101905.09
2018-07-02T05:08:34.824Z,101907.27
2018-07-02T05:11:03.120Z,101904.37
2018-07-02T05:13:31.203Z,101909.02
2018-07-02T05:15:59.268Z,101906.33
2018-07-02T05:18:27.359Z,101908.75
2018-07-02T05:20:55.400Z,101904.25
2018-07-02T05:23:23.444Z,101908.24
2018-07-02T05:25:51.546Z,101908.94
2018-07-02T05:28:19.621Z,101904.17
2018-07-02T05:30:47.672Z,101900.23
2018-07-02T05:33:15.722Z,101906.06
2018-07-02T05:35:43.790Z,101903.84
2018-07-02T05:38:11.828Z,101910.92
2018-07-02T05:40:39.869Z,101910.70
2018-07-02T05:43:07.908Z,101917.32
2018-07-02T05:45:35.944Z,101910.90
2018-07-02T05:48:04.047Z,101911.34
2018-07-02T05:50:32.088Z,101916.23
2018-07-02T05:53:00.140Z,101916.00
2018-07-02T05:55:28.284Z,101918.05
2018-07-02T05:57:56.336Z,101911.14
2018-07-02T06:00:24.425Z,101910.63
2018-07-02T06:02:52.456Z,101911.08
2018-07-02T06:05:20.492Z,101909.16
2018-07-02T06:07:48.693Z,101909.45
2018-07-02T06:10:16.729Z,101909.42
2018-07-02T06:12:44.784Z,101911.24
2018-07-02T06:15:12.832Z,101918.90
2018-07-02T06:17:40.891Z,101915.78
2018-07-02T06:20:08.944Z,101913.52
2018-07-02T06:22:36.983Z,101914.98
2018-07-02T06:25:05.367Z,101918.64
2018-07-02T06:27:33.416Z,101918.34
2018-07-02T06:30:01.469Z,101914.27
2018-07-02T06:32:29.504Z,101921.61
2018-07-02T06:34:57.571Z,101918.83
2018-07-02T06:37:25.632Z,101920.69
2018-07-02T06:39:53.689Z,101928.77
2018-07-02T06:42:21.727Z,101919.84
2018-07-02T06:44:49.775Z,101921.95
2018-07-02T06:47:17.885Z,101923.42
2018-07-02T06:49:45.932Z,101922.54
2018-07-02T06:52:13.990Z,101920.69
2018-07-02T06:54:42.071Z,101916.42
2018-07-02T06:57:10.136Z,101916.86
2018-07-02T06:59:38.180Z,101919.23
2018-07-02T07:02:06.269Z,101916.47
2018-07-02T07:04:34.323Z,101915.11
2018-07-02T07:07:02.408Z,101917.55
2018-07-02T07:09:30.787Z,101921.09
2018-07-02T07:11:58.861Z,101915.69
2018-07-02T07:14:26.905Z,101915.19
2018-07-02T07:16:55.016Z,101915.37
2018-07-02T07:19:23.144Z,101913.75
2018-07-02T07:21:51.224Z,101911.34
2018-07-02T07:24:19.320Z,101907.53
2018-07-02T07:26:47.385Z,101909.09
2018-07-02T07:29:15.464Z,101911.43
2018-07-02T07:31:43.564Z,101910.16
2018-07-02T07:34:11.636Z,101909.69
2018-07-02T07:36:39.701Z,101902.22
2018-07-02T07:39:09.072Z,101906.57
2018-07-02T07:41:37.188Z,101911.73
2018-07-02T07:44:05.285Z,101909.83
2018-07-02T07:46:33.345Z,101910.75
2018-07-02T07:49:01.405Z,101900.71
2018-07-02T07:51:29.447Z,101901.99
2018-07-02T07:53:57.486Z,101900.44
2018-07-02T07:56:25.557Z,101897.91
2018-07-02T07:58:53.692Z,101899.34
2018-07-02T08:01:21.894Z,101899.36
2018-07-02T08:03:50.080Z,101895.95
2018-07-02T08:06:18.343Z,101901.39
2018-07-02T08:08:46.384Z,101895.73
2018-07-02T08:11:14.449Z,101891.03
2018-07-02T08:13:42.517Z,101890.77
2018-07-02T08:16:10.589Z,101889.05
2018-07-02T08:18:38.698Z,101886.26
2018-07-02T08:21:06.767Z,101880.88
2018-07-02T08:23:34.821Z,101879.56
2018-07-02T08:26:02.945Z,101873.39
2018-07-02T08:28:31.037Z,101871.64
2018-07-02T08:30:59.084Z,101874.59
2018-07-02T08:33:27.236Z,101870.09
2018-07-02T08:35:55.295Z,101874.05
2018-07-02T08:38:23.340Z,101872.41
2018-07-02T08:40:51.641Z,101874.79
2018-07-02T08:43:19.692Z,101867.78
2018-07-02T08:45:47.752Z,101867.70
2018-07-02T08:48:15.792Z,101866.88
2018-07-02T08:50:43.894Z,101866.18
2018-07-02T08:53:11.940Z,101864.99
2018-07-02T08:55:39.996Z,101862.69
2018-07-02T08:58:08.076Z,101864.05
2018-07-02T09:00:36.111Z,101866.08
2018-07-02T09:03:04.294Z,101867.56
2018-07-02T09:05:32.351Z,101858.03
2018-07-02T09:08:00.406Z,101850.27
2018-07-02T09:10:28.645Z,101853.73
2018-07-02T09:12:56.508Z,101856.77
2018-07-02T09:15:24.569Z,101854.00
2018-07-02T09:17:52.632Z,101851.03
2018-07-02T09:20:20.680Z,101845.90
2018-07-02T09:22:48.852Z,101842.66
2018-07-02T09:25:16.812Z,101847.36
2018-07-02T09:27:44.843Z,101849.18
2018-07-02T09:30:12.917Z,101849.80
2018-07-02T09:32:40.984Z,101847.54
2018-07-02T09:35:09.053Z,101840.94
2018-07-02T09:37:37.104Z,101835.94
2018-07-02T09:40:05.160Z,101831.01
2018-07-02T09:42:33.324Z,101832.61
2018-07-02T09:45:01.392Z,101831.23
2018-07-02T09:47:29.631Z,101831.00
2018-07-02T09:49:57.684Z,101826.90
2018-07-02T09:52:25.759Z,101828.72
2018-07-02T09:54:53.820Z,101830.34
2018-07-02T09:57:21.882Z,101823.69
2018-07-02T09:59:49.916Z,101820.95
2018-07-02T10:02:18.003Z,101819.52
2018-07-02T10:04:46.055Z,101821.95
2018-07-02T10:07:14.125Z,101821.30
2018-07-02T10:09:42.191Z,101826.66
2018-07-02T10:12:10.257Z,101820.48
2018-07-02T10:14:38.293Z,101816.05
2018-07-02T10:17:06.342Z,101823.89
2018-07-02T10:19:34.383Z,101828.41
2018-07-02T10:22:02.449Z,101828.21
2018-07-02T10:24:30.492Z,101824.63
2018-07-02T10:26:58.563Z,101813.90
2018-07-02T10:29:26.621Z,101827.16
2018-07-02T10:31:54.736Z,101823.21
2018-07-02T10:34:22.820Z,101825.27
2018-07-02T10:36:50.936Z,101808.45
2018-07-02T10:39:18.971Z,101813.48
2018-07-02T10:41:47.069Z,101815.66
2018-07-02T10:44:15.131Z,101811.29
2018-07-02T10:46:43.220Z,101808.77
2018-07-02T10:49:11.253Z,101805.47
2018-07-02T10:51:39.376Z,101802.27
2018-07-02T10:54:07.405Z,101796.09
2018-07-02T10:56:35.504Z,101794.08
2018-07-02T10:59:03.968Z,101785.91
2018-07-02T11:01:32.040Z,101785.50
2018-07-02T11:04:00.093Z,101791.77
2018-07-02T11:06:28.156Z,101786.03
2018-07-02T11:08:56.224Z,101788.36
2018-07-02T11:11:24.361Z,101787.04
2018-07-02T11:13:52.405Z,101784.95
2018-07-02T11:16:20.474Z,101793.47
2018-07-02T11:18:48.528Z,101789.05
2018-07-02T11:21:16.584Z,101784.39
2018-07-02T11:23:44.928Z,101786.59
2018-07-02T11:26:12.962Z,101786.74
2018-07-02T11:28:41.017Z,101784.42
2018-07-02T11:31:09.081Z,101781.73
2018-07-02T11:33:37.120Z,101777.41
2018-07-02T11:36:05.231Z,101778.59
2018-07-02T11:38:33.286Z,101766.74
2018-07-02T11:41:01.356Z,101772.22
2018-07-02T11:43:29.415Z,101771.56
2018-07-02T11:45:57.498Z,101779.44
2018-07-02T11:48:25.592Z,101775.20
2018-07-02T11:50:53.664Z,101775.50
2018-07-02T11:53:21.724Z,101774.09
2018-07-02T11:55:49.778Z,101770.98
2018-07-02T11:58:17.859Z,101765.15
2018-07-02T12:00:45.896Z,101763.38
2018-07-02T12:03:14.113Z,101762.81
2018-07-02T12:05:42.355Z,101768.91
2018-07-02T12:08:10.440Z,101764.19
2018-07-02T12:10:38.506Z,101759.58
2018-07-02T12:13:06.593Z,101755.52
2018-07-02T12:15:34.698Z,101750.25
2018-07-02T12:18:02.748Z,101750.66
2018-07-02T12:20:30.785Z,101746.59
2018-07-02T12:22:58.865Z,101756.30
2018-07-02T12:25:26.899Z,101761.83
2018-07-02T12:27:55.036Z,101751.28
2018-07-02T12:30:23.098Z,101757.69
2018-07-02T12:32:51.164Z,101760.01
2018-07-02T12:35:19.302Z,101755.02
2018-07-02T12:37:47.408Z,101752.97
2018-07-02T12:40:15.468Z,101758.02
2018-07-02T12:42:43.536Z,101752.18
2018-07-02T12:45:11.608Z,101743.73
2018-07-02T12:47:39.688Z,101740.86
2018-07-02T12:50:07.932Z,101735.37
2018-07-02T12:52:35.976Z,101743.03
2018-07-02T12:55:04.046Z,101735.27
2018-07-02T12:57:32.154Z,101727.72
2018-07-02T13:00:00.214Z,101732.63
2018-07-02T13:02:28.292Z,101720.28
2018-07-02T13:04:56.349Z,101731.72
2018-07-02T13:07:24.530Z,101731.94
2018-07-02T13:09:52.585Z,101719.36
2018-07-02T13:12:20.680Z,101714.48
2018-07-02T13:14:48.743Z,101717.91
2018-07-02T13:17:16.809Z,101711.12
2018-07-02T13:19:44.880Z,101715.44
2018-07-02T13:22:12.908Z,101708.35
2018-07-02T13:24:41.094Z,101708.02
2018-07-02T13:27:09.087Z,101716.28
2018-07-02T13:29:37.147Z,101711.59
2018-07-02T13:32:05.235Z,101702.78
2018-07-02T13:34:33.311Z,101695.48
2018-07-02T13:37:01.365Z,101697.89
2018-07-02T13:39:29.444Z,101700.16
2018-07-02T13:41:57.521Z,101691.05
2018-07-02T13:44:25.620Z,101687.78
2018-07-02T13:46:53.692Z,101683.64
2018-07-02T13:49:21.747Z,101680.64
2018-07-02T13:51:49.798Z,101682.55
2018-07-02T13:54:17.860Z,101684.08
2018-07-02T13:56:45.936Z,101687.42
2018-07-02T13:59:13.998Z,101688.38
2018-07-02T14:01:42.040Z,101684.70
2018-07-02T14:04:10.109Z,101684.08
2018-07-02T14:06:38.148Z,101681.73
2018-07-02T14:09:08.552Z,101678.60
2018-07-02T14:11:36.705Z,101678.48
2018-07-02T14:14:04.810Z,101672.28
2018-07-02T14:16:32.860Z,101676.01
2018-07-02T14:19:01.016Z,101670.91
2018-07-02T14:21:29.176Z,101668.75
2018-07-02T14:23:57.356Z,101669.75
2018-07-02T14:26:25.444Z,101667.21
2018-07-02T14:28:53.837Z,101673.61
2018-07-02T14:31:21.880Z,101665.67
2018-07-02T14:33:49.943Z,101660.97
2018-07-02T14:36:18.015Z,101653.69
2018-07-02T14:38:46.072Z,101647.19
2018-07-02T14:41:14.196Z,101650.20
2018-07-02T14:43:42.249Z,101652.63
2018-07-02T14:46:10.295Z,101646.42
2018-07-02T14:48:38.381Z,101642.05
2018-07-02T14:51:06.484Z,101639.33
2018-07-02T14:53:34.532Z,101637.89
2018-07-02T14:56:02.685Z,101637.72
2018-07-02T14:58:30.955Z,101640.80
2018-07-02T15:00:59.217Z,101642.02
2018-07-02T15:03:27.500Z,101635.62
2018-07-02T15:05:55.601Z,101636.13
2018-07-02T15:08:23.872Z,101641.35
2018-07-02T15:10:51.983Z,101638.69
2018-07-02T15:13:20.093Z,101632.86
2018-07-02T15:15:48.149Z,101631.88
2018-07-02T15:18:16.298Z,101625.52
2018-07-02T15:20:44.298Z,101627.50
2018-07-02T15:23:12.668Z,101619.45
2018-07-02T15:25:40.752Z,101615.16
2018-07-02T15:28:08.796Z,101619.72
2018-07-02T15:30:36.893Z,101611.89
2018-07-02T15:33:04.992Z,101617.13
2018-07-02T15:35:33.052Z,101611.55
2018-07-02T15:38:01.127Z,101611.79
2018-07-02T15:40:29.291Z,101607.65
2018-07-02T15:42:57.336Z,101603.70
2018-07-02T15:45:25.384Z,101606.10
2018-07-02T15:47:53.428Z,101606.11
2018-07-02T15:50:21.480Z,101607.08
2018-07-02T15:52:49.572Z,101603.94
2018-07-02T15:55:17.633Z,101597.62
2018-07-02T15:57:45.695Z,101604.14
2018-07-02T16:00:14.144Z,101604.01
2018-07-02T16:02:42.175Z,101599.73
2018-07-02T16:05:10.279Z,101605.98
2018-07-02T16:07:38.356Z,101604.41
2018-07-02T16:10:06.433Z,101608.69
2018-07-02T16:12:34.496Z,101614.10
2018-07-02T16:15:02.569Z,101613.83
2018-07-02T16:17:30.702Z,101607.11
2018-07-02T16:19:58.686Z,101609.29
2018-07-02T16:22:26.823Z,101610.23
2018-07-02T16:24:54.872Z,101613.55
2018-07-02T16:27:22.929Z,101601.88
2018-07-02T16:29:50.974Z,101609.15
2018-07-02T16:32:19.047Z,101614.74
2018-07-02T16:34:47.128Z,101619.16
2018-07-02T16:37:15.180Z,101615.74
2018-07-02T16:39:43.259Z,101616.12
2018-07-02T16:42:11.328Z,101608.72
2018-07-02T16:44:39.371Z,101604.50
2018-07-02T16:47:07.472Z,101603.30
2018-07-02T16:49:35.543Z,101599.16
2018-07-02T16:52:03.609Z,101606.45
2018-07-02T16:54:31.648Z,101602.95
2018-07-02T16:56:59.709Z,101598.09
2018-07-02T16:59:27.813Z,101600.74
2018-07-02T17:01:55.860Z,101600.33
2018-07-02T17:04:23.903Z,101605.02
2018-07-02T17:06:51.944Z,101609.70
2018-07-02T17:09:19.985Z,101601.48
2018-07-02T17:11:48.067Z,101610.18
2018-07-02T17:14:16.112Z,101611.98
2018-07-02T17:16:44.219Z,101611.09
2018-07-02T17:19:12.271Z,101614.50
2018-07-02T17:21:40.318Z,101608.52
2018-07-02T17:24:08.361Z,101606.50
2018-07-02T17:26:36.492Z,101607.47
2018-07-02T17:29:04.532Z,101602.75
2018-07-02T17:31:32.627Z,101596.61
2018-07-02T17:34:00.685Z,101596.87
2018-07-02T17:36:28.735Z,101598.14
2018-07-02T17:38:56.844Z,101597.16
2018-07-02T17:41:24.896Z,101598.56
2018-07-02T17:43:53.328Z,101600.04
2018-07-02T17:46:22.512Z,101604.91
2018-07-02T17:48:50.654Z,101610.84
2018-07-02T17:51:18.723Z,101607.84
2018-07-02T17:53:46.812Z,101608.02
2018-07-02T17:56:14.870Z,101605.47
2018-07-02T17:58:42.925Z,101603.92
2018-07-02T18:01:11.050Z,101602.63
2018-07-02T18:03:39.071Z,101613.58
2018-07-02T18:06:07.128Z,101604.53
2018-07-02T18:08:35.172Z,101613.70
2018-07-02T18:11:03.292Z,101615.34
2018-07-02T18:13:31.508Z,101605.47
2018-07-02T18:15:59.636Z,101613.22
2018-07-02T18:18:27.714Z,101613.99
2018-07-02T18:20:55.769Z,101614.38
2018-07-02T18:23:23.848Z,101609.41
2018-07-02T18:25:51.928Z,101616.12
2018-07-02T18:28:19.975Z,101619.98
2018-07-02T18:30:48.018Z,101622.92
2018-07-02T18:33:16.125Z,101615.72
2018-07-02T18:35:44.201Z,101620.80
2018-07-02T18:38:12.236Z,101615.20
2018-07-02T18:40:40.276Z,101614.63
2018-07-02T18:43:08.316Z,101616.70
2018-07-02T18:45:36.368Z,101619.96
2018-07-02T18:48:04.415Z,101618.55
2018-07-02T18:50:32.461Z,101616.58
2018-07-02T18:53:00.587Z,101618.59
2018-07-02T18:55:28.674Z,101621.47
2018-07-02T18:57:56.752Z,101620.73
2018-07-02T19:00:24.874Z,101625.25
2018-07-02T19:02:52.965Z,101626.27
2018-07-02T19:05:21.035Z,101625.71
2018-07-02T19:07:49.420Z,101634.46
2018-07-02T19:10:17.492Z,101630.61
2018-07-02T19:12:45.560Z,101635.11
2018-07-02T19:15:13.612Z,101632.73
2018-07-02T19:17:41.684Z,101640.05
2018-07-02T19:20:09.771Z,101639.48
2018-07-02T19:22:37.833Z,101643.80
2018-07-02T19:25:06.500Z,101644.00
2018-07-02T19:27:34.584Z,101649.45
2018-07-02T19:30:02.647Z,101643.22
2018-07-02T19:32:30.713Z,101644.05
2018-07-02T19:34:58.760Z,101646.50
2018-07-02T19:37:26.866Z,101651.55
2018-07-02T19:39:54.928Z,101657.02
2018-07-02T19:42:22.967Z,101656.23
2018-07-02T19:44:51.019Z,101659.27
2018-07-02T19:47:19.173Z,101660.11
2018-07-02T19:49:47.304Z,101661.13
2018-07-02T19:52:15.548Z,101656.70
2018-07-02T19:54:43.654Z,101660.13
2018-07-02T19:57:11.741Z,101660.75
2018-07-02T19:59:39.795Z,101660.35
2018-07-02T20:02:07.876Z,101659.95
2018-07-02T20:04:35.935Z,101661.97
2018-07-02T20:07:04.092Z,101657.75
2018-07-02T20:09:32.078Z,101662.02
2018-07-02T20:12:00.161Z,101661.82
2018-07-02T20:14:28.224Z,101660.03
2018-07-02T20:16:56.293Z,101660.02
2018-07-02T20:19:24.369Z,101662.28
2018-07-02T20:21:52.425Z,101661.28
2018-07-02T20:24:20.505Z,101668.58
2018-07-02T20:26:48.620Z,101670.41
2018-07-02T20:29:16.936Z,101673.80
2018-07-02T20:31:45.046Z,101675.42
2018-07-02T20:34:13.060Z,101674.62
2018-07-02T20:36:41.100Z,101682.89
2018-07-02T20:39:10.555Z,101681.02
2018-07-02T20:41:38.648Z,101676.72
2018-07-02T20:44:06.704Z,101675.08
2018-07-02T20:46:35.555Z,101669.98
2018-07-02T20:49:04.091Z,101675.21
2018-07-02T20:51:32.430Z,101676.39
2018-07-02T20:54:00.722Z,101676.20
2018-07-02T20:56:28.753Z,101670.59
2018-07-02T20:58:56.815Z,101683.74
2018-07-02T21:01:24.929Z,101681.73
2018-07-02T21:03:52.924Z,101678.28
2018-07-02T21:06:21.252Z,101676.95
2018-07-02T21:08:49.297Z,101676.83
2018-07-02T21:11:17.351Z,101681.48
2018-07-02T21:13:45.405Z,101681.73
2018-07-02T21:16:13.432Z,101684.38
2018-07-02T21:18:41.483Z,101681.44
2018-07-02T21:21:09.553Z,101678.49
2018-07-02T21:23:37.571Z,101676.59
2018-07-02T21:26:05.680Z,101673.83
2018-07-02T21:28:33.719Z,101677.11
2018-07-02T21:31:01.759Z,101679.61
2018-07-02T21:33:29.808Z,101681.09
2018-07-02T21:35:57.856Z,101674.58
2018-07-02T21:38:25.892Z,101681.05
2018-07-02T21:40:53.953Z,101681.94
2018-07-02T21:43:21.996Z,101685.20
2018-07-02T21:45:50.072Z,101679.69
2018-07-02T21:48:18.131Z,101680.03
2018-07-02T21:50:46.153Z,101677.76
2018-07-02T21:53:14.188Z,101674.67
2018-07-02T21:55:42.228Z,101676.61
2018-07-02T21:58:10.261Z,101680.33
2018-07-02T22:00:42.481Z,101679.17
2018-07-02T22:03:10.524Z,101678.84
2018-07-02T22:05:38.558Z,101678.02
2018-07-02T22:08:06.599Z,101678.50
2018-07-02T22:10:34.645Z,101683.76
2018-07-02T22:13:02.943Z,101676.98
2018-07-02T22:15:30.976Z,101677.45
2018-07-02T22:17:59.009Z,101675.31
2018-07-02T22:20:27.049Z,101680.19
2018-07-02T22:22:55.077Z,101676.30
2018-07-02T22:25:23.236Z,101681.16
2018-07-02T22:27:51.233Z,101674.95
2018-07-02T22:30:19.301Z,101676.43
2018-07-02T22:32:47.335Z,101672.06
2018-07-02T22:35:15.383Z,101673.37
2018-07-02T22:37:43.425Z,101674.25
2018-07-02T22:40:12.637Z,101677.50
2018-07-02T22:42:40.661Z,101675.15
2018-07-02T22:45:08.725Z,101679.99
2018-07-02T22:47:36.936Z,101675.04
2018-07-02T22:50:05.020Z,101678.34
2018-07-02T22:52:33.044Z,101671.78
2018-07-02T22:55:01.072Z,101672.66
2018-07-02T22:57:29.112Z,101671.77
2018-07-02T22:59:57.167Z,101678.45
2018-07-02T23:02:25.206Z,101672.78
2018-07-02T23:04:53.244Z,101678.88
2018-07-02T23:07:21.273Z,101681.12
2018-07-02T23:09:49.320Z,101675.95
2018-07-02T23:12:17.348Z,101678.67
2018-07-02T23:14:45.433Z,101680.08
2018-07-02T23:17:13.482Z,101677.78
2018-07-02T23:19:41.520Z,101674.66
2018-07-02T23:22:09.548Z,101676.80
2018-07-02T23:24:37.596Z,101683.84
2018-07-02T23:27:05.639Z,101676.89
2018-07-02T23:29:33.700Z,101679.48
2018-07-02T23:32:01.720Z,101678.95
2018-07-02T23:34:29.828Z,101668.84
2018-07-02T23:36:57.867Z,101676.45
2018-07-02T23:39:25.899Z,101675.45
2018-07-02T23:41:53.931Z,101674.30
2018-07-02T23:44:21.973Z,101673.30
2018-07-02T23:46:50.036Z,101672.76
2018-07-02T23:49:18.092Z,101674.55
2018-07-02T23:51:46.119Z,101678.77
2018-07-02T23:54:14.186Z,101675.36
2018-07-02T23:56:42.229Z,101678.42
2018-07-02T23:59:10.265Z,101683.33
